sensor_id;sensor_type;location;lat;lon;timestamp;P1;durP1;ratioP1;P2;durP2;ratioP2
13687;SDS011;6916;51.504;7.416;2023-09-18T00:08:08;9.57;;;4.47;;
13687;SDS011;6916;51.504;7.416;2023-09-18T00:18:09;6.55;;;4.75;;
13687;SDS011;6916;51.504;7.416;2023-09-18T00:28:12;8.25;;;4.82;;
13687;SDS011;6916;51.504;7.416;2023-09-18T00:38:14;8.10;;;4.50;;
13687;SDS011;6916;51.504;7.416;2023-09-18T00:48:17;13.43;;;4.80;;
13687;SDS011;6916;51.504;7.416;2023-09-18T00:58:19;4.60;;;4.20;;
13687;SDS011;6916;51.504;7.416;2023-09-18T01:08:22;8.20;;;5.45;;
13687;SDS011;6916;51.504;7.416;2023-09-18T01:18:24;7.22;;;4.97;;
13687;SDS011;6916;51.504;7.416;2023-09-18T01:28:27;7.80;;;4.70;;
13687;SDS011;6916;51.504;7.416;2023-09-18T01:38:29;8.13;;;4.30;;
13687;SDS011;6916;51.504;7.416;2023-09-18T01:48:32;4.93;;;4.05;;
13687;SDS011;6916;51.504;7.416;2023-09-18T01:58:34;7.65;;;4.47;;
13687;SDS011;6916;51.504;7.416;2023-09-18T02:08:37;9.43;;;4.10;;
13687;SDS011;6916;51.504;7.416;2023-09-18T02:18:38;5.80;;;3.25;;
13687;SDS011;6916;51.504;7.416;2023-09-18T02:28:41;8.15;;;4.70;;
13687;SDS011;6916;51.504;7.416;2023-09-18T02:38:43;7.72;;;4.07;;
13687;SDS011;6916;51.504;7.416;2023-09-18T02:48:46;6.07;;;3.78;;
13687;SDS011;6916;51.504;7.416;2023-09-18T02:58:48;7.57;;;4.07;;
13687;SDS011;6916;51.504;7.416;2023-09-18T03:08:51;6.57;;;4.03;;
13687;SDS011;6916;51.504;7.416;2023-09-18T03:18:53;7.60;;;3.00;;
13687;SDS011;6916;51.504;7.416;2023-09-18T03:28:56;5.90;;;2.83;;
13687;SDS011;6916;51.504;7.416;2023-09-18T03:38:58;5.72;;;2.45;;
13687;SDS011;6916;51.504;7.416;2023-09-18T03:49:01;5.10;;;2.65;;
13687;SDS011;6916;51.504;7.416;2023-09-18T03:59:03;4.68;;;2.80;;
13687;SDS011;6916;51.504;7.416;2023-09-18T04:09:06;6.00;;;2.60;;
13687;SDS011;6916;51.504;7.416;2023-09-18T04:19:08;4.32;;;2.30;;
13687;SDS011;6916;51.504;7.416;2023-09-18T04:29:11;8.43;;;2.65;;
13687;SDS011;6916;51.504;7.416;2023-09-18T04:39:13;12.73;;;3.03;;
13687;SDS011;6916;51.504;7.416;2023-09-18T04:49:16;10.57;;;2.88;;
13687;SDS011;6916;51.504;7.416;2023-09-18T04:59:18;6.15;;;2.45;;
13687;SDS011;6916;51.504;7.416;2023-09-18T05:09:21;6.53;;;2.40;;
13687;SDS011;6916;51.504;7.416;2023-09-18T05:19:23;12.30;;;2.75;;
13687;SDS011;6916;51.504;7.416;2023-09-18T05:29:26;11.60;;;3.03;;
13687;SDS011;6916;51.504;7.416;2023-09-18T05:39:28;10.15;;;2.97;;
13687;SDS011;6916;51.504;7.416;2023-09-18T05:49:31;9.63;;;3.13;;
13687;SDS011;6916;51.504;7.416;2023-09-18T05:59:32;9.13;;;2.67;;
13687;SDS011;6916;51.504;7.416;2023-09-18T06:09:35;6.40;;;2.63;;
13687;SDS011;6916;51.504;7.416;2023-09-18T06:19:37;7.85;;;2.50;;
13687;SDS011;6916;51.504;7.416;2023-09-18T06:29:40;6.47;;;2.20;;
13687;SDS011;6916;51.504;7.416;2023-09-18T06:39:43;11.02;;;2.90;;
13687;SDS011;6916;51.504;7.416;2023-09-18T06:49:46;8.82;;;2.80;;
13687;SDS011;6916;51.504;7.416;2023-09-18T06:59:48;5.22;;;2.10;;
13687;SDS011;6916;51.504;7.416;2023-09-18T07:09:51;9.73;;;2.67;;
13687;SDS011;6916;51.504;7.416;2023-09-18T07:19:53;5.80;;;2.05;;
13687;SDS011;6916;51.504;7.416;2023-09-18T07:29:56;4.43;;;1.33;;
13687;SDS011;6916;51.504;7.416;2023-09-18T07:39:58;4.57;;;1.63;;
13687;SDS011;6916;51.504;7.416;2023-09-18T07:50:01;8.63;;;1.67;;
13687;SDS011;6916;51.504;7.416;2023-09-18T08:00:03;5.68;;;1.15;;
13687;SDS011;6916;51.504;7.416;2023-09-18T08:10:09;5.65;;;1.73;;
13687;SDS011;6916;51.504;7.416;2023-09-18T08:20:12;6.18;;;1.60;;
13687;SDS011;6916;51.504;7.416;2023-09-18T08:30:17;3.40;;;1.10;;
13687;SDS011;6916;51.504;7.416;2023-09-18T08:40:21;4.88;;;1.25;;
13687;SDS011;6916;51.504;7.416;2023-09-18T08:50:25;5.00;;;1.30;;
13687;SDS011;6916;51.504;7.416;2023-09-18T09:00:27;5.93;;;1.13;;
13687;SDS011;6916;51.504;7.416;2023-09-18T09:10:30;2.72;;;1.10;;
13687;SDS011;6916;51.504;7.416;2023-09-18T09:20:32;2.50;;;1.25;;
13687;SDS011;6916;51.504;7.416;2023-09-18T09:30:36;3.67;;;0.95;;
13687;SDS011;6916;51.504;7.416;2023-09-18T09:40:38;3.10;;;0.70;;
13687;SDS011;6916;51.504;7.416;2023-09-18T09:50:44;6.65;;;0.90;;
13687;SDS011;6916;51.504;7.416;2023-09-18T10:00:49;1.10;;;0.70;;
13687;SDS011;6916;51.504;7.416;2023-09-18T10:10:55;2.65;;;0.60;;
13687;SDS011;6916;51.504;7.416;2023-09-18T10:21:00;2.50;;;0.80;;
13687;SDS011;6916;51.504;7.416;2023-09-18T10:31:08;0.85;;;0.70;;
13687;SDS011;6916;51.504;7.416;2023-09-18T10:41:11;2.25;;;0.70;;
13687;SDS011;6916;51.504;7.416;2023-09-18T10:51:14;2.90;;;0.80;;
13687;SDS011;6916;51.504;7.416;2023-09-18T11:01:21;2.33;;;0.73;;
13687;SDS011;6916;51.504;7.416;2023-09-18T11:11:28;1.67;;;0.75;;
13687;SDS011;6916;51.504;7.416;2023-09-18T11:21:33;1.35;;;0.73;;
13687;SDS011;6916;51.504;7.416;2023-09-18T11:31:42;2.15;;;0.80;;
13687;SDS011;6916;51.504;7.416;2023-09-18T11:41:44;3.42;;;0.65;;
13687;SDS011;6916;51.504;7.416;2023-09-18T11:51:47;6.75;;;0.77;;
13687;SDS011;6916;51.504;7.416;2023-09-18T12:01:52;6.20;;;1.05;;
13687;SDS011;6916;51.504;7.416;2023-09-18T12:12:01;3.28;;;0.77;;
13687;SDS011;6916;51.504;7.416;2023-09-18T12:22:07;1.85;;;0.73;;
13687;SDS011;6916;51.504;7.416;2023-09-18T12:32:10;1.63;;;0.70;;
13687;SDS011;6916;51.504;7.416;2023-09-18T12:42:13;2.20;;;0.60;;
13687;SDS011;6916;51.504;7.416;2023-09-18T12:52:21;7.93;;;1.10;;
13687;SDS011;6916;51.504;7.416;2023-09-18T13:02:23;4.10;;;1.42;;
13687;SDS011;6916;51.504;7.416;2023-09-18T13:12:26;3.38;;;0.82;;
13687;SDS011;6916;51.504;7.416;2023-09-18T13:22:40;3.72;;;0.70;;
13687;SDS011;6916;51.504;7.416;2023-09-18T13:32:44;1.52;;;0.77;;
13687;SDS011;6916;51.504;7.416;2023-09-18T13:42:48;1.75;;;0.70;;
13687;SDS011;6916;51.504;7.416;2023-09-18T13:52:51;1.90;;;0.60;;
13687;SDS011;6916;51.504;7.416;2023-09-18T14:02:53;3.65;;;0.77;;
13687;SDS011;6916;51.504;7.416;2023-09-18T14:12:59;5.88;;;1.10;;
13687;SDS011;6916;51.504;7.416;2023-09-18T14:23:00;1.50;;;0.85;;
13687;SDS011;6916;51.504;7.416;2023-09-18T14:33:05;3.33;;;0.95;;
13687;SDS011;6916;51.504;7.416;2023-09-18T14:43:08;2.83;;;0.60;;
13687;SDS011;6916;51.504;7.416;2023-09-18T14:53:11;1.40;;;0.77;;
13687;SDS011;6916;51.504;7.416;2023-09-18T15:03:12;1.35;;;0.80;;
13687;SDS011;6916;51.504;7.416;2023-09-18T15:13:34;2.30;;;0.88;;
13687;SDS011;6916;51.504;7.416;2023-09-18T15:23:36;1.02;;;0.70;;
13687;SDS011;6916;51.504;7.416;2023-09-18T15:33:39;2.83;;;0.68;;
13687;SDS011;6916;51.504;7.416;2023-09-18T15:43:42;3.22;;;0.95;;
13687;SDS011;6916;51.504;7.416;2023-09-18T15:53:47;1.35;;;0.50;;
13687;SDS011;6916;51.504;7.416;2023-09-18T16:03:49;1.40;;;0.70;;
13687;SDS011;6916;51.504;7.416;2023-09-18T16:13:52;1.63;;;0.80;;
13687;SDS011;6916;51.504;7.416;2023-09-18T16:23:56;3.25;;;0.80;;
13687;SDS011;6916;51.504;7.416;2023-09-18T16:33:59;2.30;;;0.80;;
13687;SDS011;6916;51.504;7.416;2023-09-18T16:44:02;6.88;;;4.97;;
13687;SDS011;6916;51.504;7.416;2023-09-18T16:54:06;1.10;;;1.00;;
13687;SDS011;6916;51.504;7.416;2023-09-18T17:04:08;1.80;;;0.93;;
13687;SDS011;6916;51.504;7.416;2023-09-18T17:14:13;2.35;;;1.00;;
13687;SDS011;6916;51.504;7.416;2023-09-18T17:24:15;2.47;;;0.90;;
13687;SDS011;6916;51.504;7.416;2023-09-18T17:34:18;1.42;;;0.68;;
13687;SDS011;6916;51.504;7.416;2023-09-18T17:44:20;1.98;;;1.05;;
13687;SDS011;6916;51.504;7.416;2023-09-18T17:54:23;4.32;;;0.90;;
13687;SDS011;6916;51.504;7.416;2023-09-18T18:04:25;1.75;;;0.90;;
13687;SDS011;6916;51.504;7.416;2023-09-18T18:14:28;2.20;;;1.00;;
13687;SDS011;6916;51.504;7.416;2023-09-18T18:24:31;2.30;;;0.80;;
13687;SDS011;6916;51.504;7.416;2023-09-18T18:34:34;6.13;;;1.20;;
13687;SDS011;6916;51.504;7.416;2023-09-18T18:44:36;1.70;;;0.90;;
13687;SDS011;6916;51.504;7.416;2023-09-18T18:54:39;2.38;;;0.57;;
13687;SDS011;6916;51.504;7.416;2023-09-18T19:04:42;2.53;;;0.70;;
13687;SDS011;6916;51.504;7.416;2023-09-18T19:14:49;2.13;;;0.85;;
13687;SDS011;6916;51.504;7.416;2023-09-18T19:24:51;3.17;;;0.88;;
13687;SDS011;6916;51.504;7.416;2023-09-18T19:34:54;1.90;;;0.90;;
13687;SDS011;6916;51.504;7.416;2023-09-18T19:44:56;1.83;;;0.73;;
13687;SDS011;6916;51.504;7.416;2023-09-18T19:55:00;2.35;;;0.80;;
13687;SDS011;6916;51.504;7.416;2023-09-18T20:05:03;3.97;;;0.85;;
13687;SDS011;6916;51.504;7.416;2023-09-18T20:15:08;2.10;;;0.95;;
13687;SDS011;6916;51.504;7.416;2023-09-18T20:25:11;1.73;;;0.75;;
13687;SDS011;6916;51.504;7.416;2023-09-18T20:35:14;4.70;;;0.70;;
13687;SDS011;6916;51.504;7.416;2023-09-18T20:45:16;2.17;;;1.25;;
13687;SDS011;6916;51.504;7.416;2023-09-18T20:55:20;3.20;;;1.20;;
13687;SDS011;6916;51.504;7.416;2023-09-18T21:05:22;2.33;;;1.20;;
13687;SDS011;6916;51.504;7.416;2023-09-18T21:15:26;1.90;;;0.85;;
13687;SDS011;6916;51.504;7.416;2023-09-18T21:25:30;1.95;;;0.93;;
13687;SDS011;6916;51.504;7.416;2023-09-18T21:35:33;0.82;;;0.60;;
13687;SDS011;6916;51.504;7.416;2023-09-18T21:45:36;2.05;;;0.73;;
13687;SDS011;6916;51.504;7.416;2023-09-18T21:55:43;5.22;;;0.82;;
13687;SDS011;6916;51.504;7.416;2023-09-18T22:05:45;3.22;;;0.93;;
13687;SDS011;6916;51.504;7.416;2023-09-18T22:15:48;2.15;;;1.20;;
13687;SDS011;6916;51.504;7.416;2023-09-18T22:25:49;2.30;;;1.00;;
13687;SDS011;6916;51.504;7.416;2023-09-18T22:35:52;3.22;;;0.98;;
13687;SDS011;6916;51.504;7.416;2023-09-18T22:56:35;3.15;;;1.10;;
13687;SDS011;6916;51.504;7.416;2023-09-18T23:06:37;1.73;;;1.13;;
13687;SDS011;6916;51.504;7.416;2023-09-18T23:16:40;1.70;;;1.17;;
13687;SDS011;6916;51.504;7.416;2023-09-18T23:26:42;4.63;;;1.20;;
13687;SDS011;6916;51.504;7.416;2023-09-18T23:36:45;2.35;;;1.30;;
13687;SDS011;6916;51.504;7.416;2023-09-18T23:46:48;3.80;;;1.25;;
13687;SDS011;6916;51.504;7.416;2023-09-18T23:56:53;5.20;;;1.17;;
